Super Jet — IINO — position and weather

sailwx.info

Track history (hours):
 
Tides and Currents Weather Stations Pressure Air Temp Water Temp Dewpoint Dewpoint Depression Visibility Wind Speed Wind Dir Waves Ship Positions

Super Jet

Last reported at 2016-Jun-26 17:06 UTC. Time now 2016-Jun-27 05:58 UTC.
Position N 40°38' E 014°23'.

Length 30 m; draft 1.4 m.

Type: High speed craft. MMSI: 247540000.

Date/timePositionNaut miles runAvg speedWind from/ knotsBaromVisibWave heightAir tempDewpointWater temp
2016-Jun-26 17:06N 40°38' E 014°23'1221.5
2016-Jun-26 16:33N 40°49' E 014°17'4 4.3
2016-Jun-26 15:34N 40°44' E 014°17'1111.0
2016-Jun-26 14:33N 40°34' E 014°15'0 0.4
2016-Jun-26 13:33N 40°33' E 014°14'2 1.7
2016-Jun-26 12:33N 40°35' E 014°14'1 0.5
2016-Jun-26 11:33N 40°35' E 014°14'1 1.5
2016-Jun-26 10:33N 40°33' E 014°14'17 7.7
2016-Jun-26 08:24N 40°50' E 014°17'1719.1
2016-Jun-26 07:32N 40°33' E 014°14'9 4.4
2016-Jun-26 05:29N 40°41' E 014°21'9 0.7
2016-Jun-25 16:33N 40°49' E 014°17'5 5.1
2016-Jun-25 15:34N 40°44' E 014°17'1010.5
2016-Jun-25 14:33N 40°33' E 014°14'1716.6
2016-Jun-25 13:33N 40°50' E 014°15'1 0.6
2016-Jun-25 12:25N 40°50' E 014°16'1718.6
2016-Jun-25 11:31N 40°33' E 014°14'0 0.0
2016-Jun-25 10:32N 40°33' E 014°14'2 1.9
2016-Jun-25 09:33N 40°35' E 014°16'1513.4
2016-Jun-25 08:26N 40°50' E 014°17'1719.0
2016-Jun-25 07:33N 40°33' E 014°14'10 4.8
2016-Jun-25 05:33N 40°42' E 014°21'4 0.4
2016-Jun-24 17:05N 40°38' E 014°23'1324.1
2016-Jun-24 16:33N 40°50' E 014°17'8 8.5
2016-Jun-24 15:33N 40°41' E 014°16'8 7.9
2016-Jun-24 14:33N 40°34' E 014°15'0 0.3
2016-Jun-24 13:24N 40°33' E 014°14'2 1.8
2016-Jun-24 12:33N 40°35' E 014°14'1 0.6
2016-Jun-24 11:34N 40°35' E 014°13'2 1.8
2016-Jun-24 10:33N 40°35' E 014°16'1613.8
2016-Jun-24 09:25N 40°50' E 014°16'1718.9
2016-Jun-24 08:32N 40°33' E 014°14'8 0.2
2016-Jun-22 20:21N 40°38' E 014°23'0 0.0
2016-Jun-22 19:33N 40°38' E 014°23'0 0.0
2016-Jun-22 18:33N 40°38' E 014°23'0 0.0
2016-Jun-22 17:33N 40°38' E 014°23'0 0.0
2016-Jun-21 20:17N 40°38' E 014°23'0 0.0
2016-Jun-21 19:33N 40°38' E 014°23'0 0.0
2016-Jun-21 18:33N 40°38' E 014°23'0 0.0
2016-Jun-21 17:33N 40°38' E 014°23'1212.5
2016-Jun-21 16:33N 40°49' E 014°17'17 4.0
2016-Jun-21 12:24N 40°33' E 014°16'0 0.4
2016-Jun-21 11:33N 40°33' E 014°16'1 1.3
2016-Jun-21 10:33N 40°33' E 014°14'17 0.8
2016-Jun-20 12:27N 40°50' E 014°16'1718.7
2016-Jun-20 11:33N 40°33' E 014°14'0 0.0
2016-Jun-20 10:33N 40°33' E 014°14'8 0.5
2016-Jun-19 19:21N 40°38' E 014°23'5 0.9
2016-Jun-19 14:23N 40°35' E 014°17'3 3.7
2016-Jun-19 13:34N 40°33' E 014°14'2 2.0
2016-Jun-19 12:33N 40°33' E 014°17'1 0.5
2016-Jun-19 11:33N 40°33' E 014°17'2 1.8
2016-Jun-19 10:33N 40°34' E 014°15'17 7.7
2016-Jun-19 08:23N 40°50' E 014°16'1720.3
2016-Jun-19 07:33N 40°33' E 014°14'10 5.0
2016-Jun-19 05:33N 40°42' E 014°20'5 5.0
2016-Jun-19 04:33N 40°38' E 014°23'0 0.0
2016-Jun-19 03:33N 40°38' E 014°23'0 0.0
2016-Jun-19 02:33N 40°38' E 014°23'0 0.0
2016-Jun-19 01:33N 40°38' E 014°23'0 0.0
2016-Jun-19 00:33N 40°38' E 014°23'0 0.0
2016-Jun-18 23:33N 40°38' E 014°23'0 0.0
2016-Jun-18 22:33N 40°38' E 014°23'0 0.0
2016-Jun-18 21:33N 40°38' E 014°23'0 0.0
2016-Jun-18 20:33N 40°38' E 014°23'0 0.0
2016-Jun-18 19:33N 40°38' E 014°23'0 0.0
2016-Jun-18 18:33N 40°38' E 014°23'0 0.0
2016-Jun-18 17:33N 40°38' E 014°23'1211.6
2016-Jun-18 16:33N 40°49' E 014°17'6 5.8
2016-Jun-18 15:33N 40°43' E 014°17'10 9.6
2016-Jun-18 14:33N 40°33' E 014°14'17 8.2
2016-Jun-18 12:31N 40°50' E 014°16'1717.4
2016-Jun-18 11:33N 40°33' E 014°14'2 2.4
2016-Jun-18 10:33N 40°32' E 014°17'0 0.5
2016-Jun-18 09:32N 40°32' E 014°17'2 2.0
2016-Jun-18 08:33N 40°33' E 014°14'9 3.2
2016-Jun-18 05:33N 40°42' E 014°20'4 4.4
2016-Jun-18 04:33N 40°38' E 014°23'0 0.0
2016-Jun-18 03:33N 40°38' E 014°23'0 0.0
2016-Jun-18 02:33N 40°38' E 014°23'0 0.0
2016-Jun-18 01:33N 40°38' E 014°23'0 0.0
2016-Jun-18 00:33N 40°38' E 014°23'0 0.0
2016-Jun-17 23:33N 40°38' E 014°23'0 0.0
2016-Jun-17 22:33N 40°38' E 014°23'0 0.0
2016-Jun-17 21:33N 40°38' E 014°23'0 0.0
2016-Jun-17 20:34N 40°38' E 014°23'0 0.0
2016-Jun-17 19:34N 40°38' E 014°23'0 0.0
2016-Jun-17 18:33N 40°38' E 014°23'0 0.0
2016-Jun-17 17:33N 40°38' E 014°23'1212.0
2016-Jun-17 16:33N 40°49' E 014°17'2 1.4
2016-Jun-17 15:25N 40°50' E 014°16'1719.4
2016-Jun-17 14:34N 40°33' E 014°15'2 2.1
2016-Jun-17 13:33N 40°32' E 014°17'1 0.7
2016-Jun-17 12:33N 40°33' E 014°16'0 0.3
2016-Jun-17 11:33N 40°33' E 014°16'1 1.2
2016-Jun-17 10:33N 40°33' E 014°14'7 7.2
2016-Jun-17 09:33N 40°40' E 014°18'1010.0
2016-Jun-17 08:32N 40°50' E 014°16'1717.0
2016-Jun-17 07:33N 40°33' E 014°14'10 5.1
2016-Jun-17 05:33N 40°43' E 014°20'5 5.0
2016-Jun-17 04:33N 40°38' E 014°23'0 0.0
2016-Jun-17 03:33N 40°38' E 014°23'0 0.0
2016-Jun-17 02:33N 40°38' E 014°23'0 0.0
2016-Jun-17 01:33N 40°38' E 014°23'0 0.0
2016-Jun-17 00:33N 40°38' E 014°23'0 0.0
2016-Jun-16 23:33N 40°38' E 014°23'0 0.0
2016-Jun-16 22:33N 40°38' E 014°23'0 0.0
2016-Jun-16 21:33N 40°38' E 014°23'0 0.0
2016-Jun-16 20:33N 40°38' E 014°23'0 0.0
2016-Jun-16 19:33N 40°38' E 014°23'0 0.0
2016-Jun-16 18:33N 40°38' E 014°23'0 0.0
2016-Jun-16 17:33N 40°38' E 014°23'  
Track history (hours):
 
Tides and Currents Weather Stations Pressure Air Temp Water Temp Dewpoint Dewpoint Depression Visibility Wind Speed Wind Dir Waves Ship Positions

Super Jet

Last reported at 2016-Jun-26 17:06 UTC. Time now 2016-Jun-27 05:58 UTC.
Position N 40°38' E 014°23'.

Length 30 m; draft 1.4 m.

Type: High speed craft. MMSI: 247540000.

Date/timePositionNaut miles runAvg speedWind from/ knotsBaromVisibWave heightAir tempDewpointWater temp
2016-Jun-26 17:06N 40°38' E 014°23'1221.5
2016-Jun-26 16:33N 40°49' E 014°17'4 4.3
2016-Jun-26 15:34N 40°44' E 014°17'1111.0
2016-Jun-26 14:33N 40°34' E 014°15'0 0.4
2016-Jun-26 13:33N 40°33' E 014°14'2 1.7
2016-Jun-26 12:33N 40°35' E 014°14'1 0.5
2016-Jun-26 11:33N 40°35' E 014°14'1 1.5
2016-Jun-26 10:33N 40°33' E 014°14'17 7.7
2016-Jun-26 08:24N 40°50' E 014°17'1719.1
2016-Jun-26 07:32N 40°33' E 014°14'9 4.4
2016-Jun-26 05:29N 40°41' E 014°21'9 0.7
2016-Jun-25 16:33N 40°49' E 014°17'5 5.1
2016-Jun-25 15:34N 40°44' E 014°17'1010.5
2016-Jun-25 14:33N 40°33' E 014°14'1716.6
2016-Jun-25 13:33N 40°50' E 014°15'1 0.6
2016-Jun-25 12:25N 40°50' E 014°16'1718.6
2016-Jun-25 11:31N 40°33' E 014°14'0 0.0
2016-Jun-25 10:32N 40°33' E 014°14'2 1.9
2016-Jun-25 09:33N 40°35' E 014°16'1513.4
2016-Jun-25 08:26N 40°50' E 014°17'1719.0
2016-Jun-25 07:33N 40°33' E 014°14'10 4.8
2016-Jun-25 05:33N 40°42' E 014°21'4 0.4
2016-Jun-24 17:05N 40°38' E 014°23'1324.1
2016-Jun-24 16:33N 40°50' E 014°17'8 8.5
2016-Jun-24 15:33N 40°41' E 014°16'8 7.9
2016-Jun-24 14:33N 40°34' E 014°15'0 0.3
2016-Jun-24 13:24N 40°33' E 014°14'2 1.8
2016-Jun-24 12:33N 40°35' E 014°14'1 0.6
2016-Jun-24 11:34N 40°35' E 014°13'2 1.8
2016-Jun-24 10:33N 40°35' E 014°16'1613.8
2016-Jun-24 09:25N 40°50' E 014°16'1718.9
2016-Jun-24 08:32N 40°33' E 014°14'8 0.2
2016-Jun-22 20:21N 40°38' E 014°23'0 0.0
2016-Jun-22 19:33N 40°38' E 014°23'0 0.0
2016-Jun-22 18:33N 40°38' E 014°23'0 0.0
2016-Jun-22 17:33N 40°38' E 014°23'0 0.0
2016-Jun-21 20:17N 40°38' E 014°23'0 0.0
2016-Jun-21 19:33N 40°38' E 014°23'0 0.0
2016-Jun-21 18:33N 40°38' E 014°23'0 0.0
2016-Jun-21 17:33N 40°38' E 014°23'1212.5
2016-Jun-21 16:33N 40°49' E 014°17'17 4.0
2016-Jun-21 12:24N 40°33' E 014°16'0 0.4
2016-Jun-21 11:33N 40°33' E 014°16'1 1.3
2016-Jun-21 10:33N 40°33' E 014°14'17 0.8
2016-Jun-20 12:27N 40°50' E 014°16'1718.7
2016-Jun-20 11:33N 40°33' E 014°14'0 0.0
2016-Jun-20 10:33N 40°33' E 014°14'8 0.5
2016-Jun-19 19:21N 40°38' E 014°23'5 0.9
2016-Jun-19 14:23N 40°35' E 014°17'3 3.7
2016-Jun-19 13:34N 40°33' E 014°14'2 2.0
2016-Jun-19 12:33N 40°33' E 014°17'1 0.5
2016-Jun-19 11:33N 40°33' E 014°17'2 1.8
2016-Jun-19 10:33N 40°34' E 014°15'17 7.7
2016-Jun-19 08:23N 40°50' E 014°16'1720.3
2016-Jun-19 07:33N 40°33' E 014°14'10 5.0
2016-Jun-19 05:33N 40°42' E 014°20'5 5.0
2016-Jun-19 04:33N 40°38' E 014°23'0 0.0
2016-Jun-19 03:33N 40°38' E 014°23'0 0.0
2016-Jun-19 02:33N 40°38' E 014°23'0 0.0
2016-Jun-19 01:33N 40°38' E 014°23'0 0.0
2016-Jun-19 00:33N 40°38' E 014°23'0 0.0
2016-Jun-18 23:33N 40°38' E 014°23'0 0.0
2016-Jun-18 22:33N 40°38' E 014°23'0 0.0
2016-Jun-18 21:33N 40°38' E 014°23'0 0.0
2016-Jun-18 20:33N 40°38' E 014°23'0 0.0
2016-Jun-18 19:33N 40°38' E 014°23'0 0.0
2016-Jun-18 18:33N 40°38' E 014°23'0 0.0
2016-Jun-18 17:33N 40°38' E 014°23'1211.6
2016-Jun-18 16:33N 40°49' E 014°17'6 5.8
2016-Jun-18 15:33N 40°43' E 014°17'10 9.6
2016-Jun-18 14:33N 40°33' E 014°14'17 8.2
2016-Jun-18 12:31N 40°50' E 014°16'1717.4
2016-Jun-18 11:33N 40°33' E 014°14'2 2.4
2016-Jun-18 10:33N 40°32' E 014°17'0 0.5
2016-Jun-18 09:32N 40°32' E 014°17'2 2.0
2016-Jun-18 08:33N 40°33' E 014°14'9 3.2
2016-Jun-18 05:33N 40°42' E 014°20'4 4.4
2016-Jun-18 04:33N 40°38' E 014°23'0 0.0
2016-Jun-18 03:33N 40°38' E 014°23'0 0.0
2016-Jun-18 02:33N 40°38' E 014°23'0 0.0
2016-Jun-18 01:33N 40°38' E 014°23'0 0.0
2016-Jun-18 00:33N 40°38' E 014°23'0 0.0
2016-Jun-17 23:33N 40°38' E 014°23'0 0.0
2016-Jun-17 22:33N 40°38' E 014°23'0 0.0
2016-Jun-17 21:33N 40°38' E 014°23'0 0.0
2016-Jun-17 20:34N 40°38' E 014°23'0 0.0
2016-Jun-17 19:34N 40°38' E 014°23'0 0.0
2016-Jun-17 18:33N 40°38' E 014°23'0 0.0
2016-Jun-17 17:33N 40°38' E 014°23'1212.0
2016-Jun-17 16:33N 40°49' E 014°17'2 1.4
2016-Jun-17 15:25N 40°50' E 014°16'1719.4
2016-Jun-17 14:34N 40°33' E 014°15'2 2.1
2016-Jun-17 13:33N 40°32' E 014°17'1 0.7
2016-Jun-17 12:33N 40°33' E 014°16'0 0.3
2016-Jun-17 11:33N 40°33' E 014°16'1 1.2
2016-Jun-17 10:33N 40°33' E 014°14'7 7.2
2016-Jun-17 09:33N 40°40' E 014°18'1010.0
2016-Jun-17 08:32N 40°50' E 014°16'1717.0
2016-Jun-17 07:33N 40°33' E 014°14'10 5.1
2016-Jun-17 05:33N 40°43' E 014°20'5 5.0
2016-Jun-17 04:33N 40°38' E 014°23'0 0.0
2016-Jun-17 03:33N 40°38' E 014°23'0 0.0
2016-Jun-17 02:33N 40°38' E 014°23'0 0.0
2016-Jun-17 01:33N 40°38' E 014°23'0 0.0
2016-Jun-17 00:33N 40°38' E 014°23'0 0.0
2016-Jun-16 23:33N 40°38' E 014°23'0 0.0
2016-Jun-16 22:33N 40°38' E 014°23'0 0.0
2016-Jun-16 21:33N 40°38' E 014°23'0 0.0
2016-Jun-16 20:33N 40°38' E 014°23'0 0.0
2016-Jun-16 19:33N 40°38' E 014°23'0 0.0
2016-Jun-16 18:33N 40°38' E 014°23'0 0.0
2016-Jun-16 17:33N 40°38' E 014°23'  

Dump ship's entire track history